sensor_id;sensor_type;location;lat;lon;timestamp;P1;durP1;ratioP1;P2;durP2;ratioP2
70075;SDS011;63241;51.056;3.698;2023-08-17T00:07:55;13.13;;;9.98;;
70075;SDS011;63241;51.056;3.698;2023-08-17T00:10:41;9.45;;;7.37;;
70075;SDS011;63241;51.056;3.698;2023-08-17T09:23:27;5.97;;;4.10;;
70075;SDS011;63241;51.056;3.698;2023-08-17T09:26:19;5.65;;;3.77;;
70075;SDS011;63241;51.056;3.698;2023-08-17T09:29:23;9.40;;;4.15;;
70075;SDS011;63241;51.056;3.698;2023-08-17T09:32:19;11.38;;;3.75;;
70075;SDS011;63241;51.056;3.698;2023-08-17T09:35:05;8.03;;;4.03;;
70075;SDS011;63241;51.056;3.698;2023-08-17T09:37:52;8.58;;;3.55;;
70075;SDS011;63241;51.056;3.698;2023-08-17T09:40:55;7.25;;;3.37;;
70075;SDS011;63241;51.056;3.698;2023-08-17T09:46:54;8.90;;;3.30;;
70075;SDS011;63241;51.056;3.698;2023-08-17T09:49:47;7.75;;;3.80;;
70075;SDS011;63241;51.056;3.698;2023-08-17T09:52:38;5.70;;;3.85;;
70075;SDS011;63241;51.056;3.698;2023-08-17T09:58:53;6.63;;;3.50;;
70075;SDS011;63241;51.056;3.698;2023-08-17T10:01:45;7.22;;;3.62;;
70075;SDS011;63241;51.056;3.698;2023-08-17T10:04:33;7.05;;;3.17;;
70075;SDS011;63241;51.056;3.698;2023-08-17T10:07:22;8.88;;;3.83;;
70075;SDS011;63241;51.056;3.698;2023-08-17T10:10:17;8.68;;;4.03;;
70075;SDS011;63241;51.056;3.698;2023-08-17T10:13:11;7.90;;;3.77;;
70075;SDS011;63241;51.056;3.698;2023-08-17T10:16:14;7.15;;;4.25;;
70075;SDS011;63241;51.056;3.698;2023-08-17T10:21:58;8.00;;;4.22;;
70075;SDS011;63241;51.056;3.698;2023-08-17T10:25:23;7.17;;;4.15;;
70075;SDS011;63241;51.056;3.698;2023-08-17T10:28:16;4.97;;;3.70;;
70075;SDS011;63241;51.056;3.698;2023-08-17T10:31:03;7.10;;;3.77;;
70075;SDS011;63241;51.056;3.698;2023-08-17T10:33:49;6.62;;;4.17;;
70075;SDS011;63241;51.056;3.698;2023-08-17T10:36:36;8.28;;;4.40;;
70075;SDS011;63241;51.056;3.698;2023-08-17T10:39:27;5.92;;;4.17;;
70075;SDS011;63241;51.056;3.698;2023-08-17T10:48:26;9.23;;;4.12;;
70075;SDS011;63241;51.056;3.698;2023-08-17T10:51:13;5.78;;;3.22;;
70075;SDS011;63241;51.056;3.698;2023-08-17T10:54:01;8.08;;;4.67;;
70075;SDS011;63241;51.056;3.698;2023-08-17T10:56:48;8.30;;;4.30;;
70075;SDS011;63241;51.056;3.698;2023-08-17T10:59:35;5.65;;;3.47;;
70075;SDS011;63241;51.056;3.698;2023-08-17T11:02:21;8.08;;;4.20;;
70075;SDS011;63241;51.056;3.698;2023-08-17T11:05:09;7.55;;;4.65;;
70075;SDS011;63241;51.056;3.698;2023-08-17T11:07:57;10.75;;;4.87;;
70075;SDS011;63241;51.056;3.698;2023-08-17T11:10:47;5.83;;;4.53;;
70075;SDS011;63241;51.056;3.698;2023-08-17T11:13:37;9.70;;;4.62;;
70075;SDS011;63241;51.056;3.698;2023-08-17T11:16:24;10.13;;;5.10;;
70075;SDS011;63241;51.056;3.698;2023-08-17T11:19:10;8.28;;;4.95;;
70075;SDS011;63241;51.056;3.698;2023-08-17T11:21:57;15.00;;;5.28;;
70075;SDS011;63241;51.056;3.698;2023-08-17T11:24:45;13.98;;;5.55;;
70075;SDS011;63241;51.056;3.698;2023-08-17T11:27:33;8.08;;;4.83;;
70075;SDS011;63241;51.056;3.698;2023-08-17T11:30:19;9.30;;;4.40;;
70075;SDS011;63241;51.056;3.698;2023-08-17T11:33:10;9.40;;;5.08;;
70075;SDS011;63241;51.056;3.698;2023-08-17T11:35:57;10.48;;;4.30;;
70075;SDS011;63241;51.056;3.698;2023-08-17T11:54:32;8.03;;;4.67;;
70075;SDS011;63241;51.056;3.698;2023-08-17T11:57:20;8.58;;;4.78;;
70075;SDS011;63241;51.056;3.698;2023-08-17T12:00:07;14.20;;;5.35;;
70075;SDS011;63241;51.056;3.698;2023-08-17T12:02:54;10.08;;;5.10;;
70075;SDS011;63241;51.056;3.698;2023-08-17T12:05:40;10.90;;;4.70;;
70075;SDS011;63241;51.056;3.698;2023-08-17T12:08:26;8.00;;;4.92;;
70075;SDS011;63241;51.056;3.698;2023-08-17T12:11:13;13.00;;;5.17;;
70075;SDS011;63241;51.056;3.698;2023-08-17T12:14:07;11.93;;;5.62;;
70075;SDS011;63241;51.056;3.698;2023-08-17T12:16:56;9.78;;;6.08;;
70075;SDS011;63241;51.056;3.698;2023-08-17T12:19:43;11.03;;;5.85;;
70075;SDS011;63241;51.056;3.698;2023-08-17T12:22:31;10.00;;;6.70;;
70075;SDS011;63241;51.056;3.698;2023-08-17T12:25:20;12.28;;;8.00;;
70075;SDS011;63241;51.056;3.698;2023-08-17T12:28:08;14.07;;;8.13;;
70075;SDS011;63241;51.056;3.698;2023-08-17T12:31:06;11.50;;;8.03;;
70075;SDS011;63241;51.056;3.698;2023-08-17T12:33:53;11.15;;;8.38;;
70075;SDS011;63241;51.056;3.698;2023-08-17T12:36:42;12.98;;;8.63;;
70075;SDS011;63241;51.056;3.698;2023-08-17T12:39:28;16.48;;;8.43;;
70075;SDS011;63241;51.056;3.698;2023-08-17T12:42:14;13.62;;;10.13;;
70075;SDS011;63241;51.056;3.698;2023-08-17T12:45:02;15.55;;;9.60;;
70075;SDS011;63241;51.056;3.698;2023-08-17T12:47:49;13.35;;;9.73;;
70075;SDS011;63241;51.056;3.698;2023-08-17T12:50:36;15.65;;;10.08;;
70075;SDS011;63241;51.056;3.698;2023-08-17T12:53:23;12.28;;;9.30;;
70075;SDS011;63241;51.056;3.698;2023-08-17T12:56:09;10.58;;;8.68;;
70075;SDS011;63241;51.056;3.698;2023-08-17T12:58:55;15.43;;;10.43;;
70075;SDS011;63241;51.056;3.698;2023-08-17T13:01:41;11.68;;;10.25;;
70075;SDS011;63241;51.056;3.698;2023-08-17T13:07:15;14.70;;;10.68;;
70075;SDS011;63241;51.056;3.698;2023-08-17T13:10:02;15.95;;;11.78;;
70075;SDS011;63241;51.056;3.698;2023-08-17T13:12:48;12.25;;;11.03;;
70075;SDS011;63241;51.056;3.698;2023-08-17T13:15:36;16.35;;;11.75;;
70075;SDS011;63241;51.056;3.698;2023-08-17T13:53:04;14.60;;;12.58;;
70075;SDS011;63241;51.056;3.698;2023-08-17T13:55:50;14.30;;;11.95;;
70075;SDS011;63241;51.056;3.698;2023-08-17T13:58:37;15.93;;;13.20;;
70075;SDS011;63241;51.056;3.698;2023-08-17T14:01:23;16.15;;;13.08;;
70075;SDS011;63241;51.056;3.698;2023-08-17T14:04:10;15.50;;;12.10;;
70075;SDS011;63241;51.056;3.698;2023-08-17T14:06:56;14.53;;;11.63;;
70075;SDS011;63241;51.056;3.698;2023-08-17T14:09:42;21.48;;;10.85;;
70075;SDS011;63241;51.056;3.698;2023-08-17T14:12:29;17.42;;;12.37;;
70075;SDS011;63241;51.056;3.698;2023-08-17T14:15:15;18.62;;;11.33;;
70075;SDS011;63241;51.056;3.698;2023-08-17T14:18:01;17.35;;;11.30;;
70075;SDS011;63241;51.056;3.698;2023-08-17T14:20:47;50.75;;;12.47;;
70075;SDS011;63241;51.056;3.698;2023-08-17T14:23:34;21.55;;;10.90;;
70075;SDS011;63241;51.056;3.698;2023-08-17T14:26:20;14.65;;;10.82;;
70075;SDS011;63241;51.056;3.698;2023-08-17T14:29:07;13.08;;;9.75;;
70075;SDS011;63241;51.056;3.698;2023-08-17T14:31:53;15.45;;;10.63;;
70075;SDS011;63241;51.056;3.698;2023-08-17T14:34:39;14.15;;;10.13;;
70075;SDS011;63241;51.056;3.698;2023-08-17T14:37:25;11.63;;;9.50;;
70075;SDS011;63241;51.056;3.698;2023-08-17T14:40:12;26.40;;;9.60;;
70075;SDS011;63241;51.056;3.698;2023-08-17T14:42:58;14.73;;;10.72;;
70075;SDS011;63241;51.056;3.698;2023-08-17T14:45:44;16.82;;;9.68;;
70075;SDS011;63241;51.056;3.698;2023-08-17T14:48:30;12.00;;;9.83;;
70075;SDS011;63241;51.056;3.698;2023-08-17T14:51:17;11.83;;;9.40;;
70075;SDS011;63241;51.056;3.698;2023-08-17T14:54:03;12.80;;;9.03;;
70075;SDS011;63241;51.056;3.698;2023-08-17T14:56:51;11.90;;;8.05;;
70075;SDS011;63241;51.056;3.698;2023-08-17T14:59:55;12.30;;;8.33;;
70075;SDS011;63241;51.056;3.698;2023-08-17T15:02:41;12.50;;;8.88;;
70075;SDS011;63241;51.056;3.698;2023-08-17T15:05:28;14.30;;;10.55;;
70075;SDS011;63241;51.056;3.698;2023-08-17T15:08:15;13.05;;;9.83;;
70075;SDS011;63241;51.056;3.698;2023-08-17T15:11:03;13.70;;;10.03;;
70075;SDS011;63241;51.056;3.698;2023-08-17T15:14:04;12.58;;;9.43;;
70075;SDS011;63241;51.056;3.698;2023-08-17T15:16:57;11.03;;;8.80;;
70075;SDS011;63241;51.056;3.698;2023-08-17T15:19:43;15.53;;;9.58;;
70075;SDS011;63241;51.056;3.698;2023-08-17T15:22:29;12.47;;;8.95;;
70075;SDS011;63241;51.056;3.698;2023-08-17T15:25:23;14.85;;;10.40;;
70075;SDS011;63241;51.056;3.698;2023-08-17T15:28:16;12.80;;;9.35;;
70075;SDS011;63241;51.056;3.698;2023-08-17T15:31:06;11.20;;;8.40;;
70075;SDS011;63241;51.056;3.698;2023-08-17T15:33:56;15.30;;;9.25;;
70075;SDS011;63241;51.056;3.698;2023-08-17T15:36:45;12.25;;;8.70;;
70075;SDS011;63241;51.056;3.698;2023-08-17T15:42:16;12.40;;;9.83;;
70075;SDS011;63241;51.056;3.698;2023-08-17T15:45:03;15.88;;;10.13;;
70075;SDS011;63241;51.056;3.698;2023-08-17T15:47:50;11.55;;;9.75;;
70075;SDS011;63241;51.056;3.698;2023-08-17T15:56:29;16.25;;;9.98;;
70075;SDS011;63241;51.056;3.698;2023-08-17T15:59:15;17.10;;;10.03;;
70075;SDS011;63241;51.056;3.698;2023-08-17T16:02:01;26.37;;;12.30;;
70075;SDS011;63241;51.056;3.698;2023-08-17T16:07:43;16.10;;;10.45;;
70075;SDS011;63241;51.056;3.698;2023-08-17T16:10:48;14.47;;;10.05;;
70075;SDS011;63241;51.056;3.698;2023-08-17T16:13:35;35.45;;;12.33;;
70075;SDS011;63241;51.056;3.698;2023-08-17T16:16:22;15.38;;;10.63;;
70075;SDS011;63241;51.056;3.698;2023-08-17T16:19:29;18.82;;;10.43;;
70075;SDS011;63241;51.056;3.698;2023-08-17T16:22:32;13.80;;;10.48;;
70075;SDS011;63241;51.056;3.698;2023-08-17T16:25:20;13.65;;;11.68;;
70075;SDS011;63241;51.056;3.698;2023-08-17T16:28:07;14.30;;;11.78;;
70075;SDS011;63241;51.056;3.698;2023-08-17T16:30:53;19.23;;;11.55;;
70075;SDS011;63241;51.056;3.698;2023-08-17T16:33:57;16.42;;;11.28;;
70075;SDS011;63241;51.056;3.698;2023-08-17T16:37:11;13.95;;;10.88;;
70075;SDS011;63241;51.056;3.698;2023-08-17T16:39:57;16.23;;;10.75;;
70075;SDS011;63241;51.056;3.698;2023-08-17T16:42:43;14.90;;;10.58;;
70075;SDS011;63241;51.056;3.698;2023-08-17T16:50:54;15.20;;;11.28;;
70075;SDS011;63241;51.056;3.698;2023-08-17T16:53:40;15.85;;;11.25;;
70075;SDS011;63241;51.056;3.698;2023-08-17T16:56:28;17.17;;;12.05;;
70075;SDS011;63241;51.056;3.698;2023-08-17T17:02:39;14.23;;;11.70;;
70075;SDS011;63241;51.056;3.698;2023-08-17T17:05:29;17.07;;;11.20;;
70075;SDS011;63241;51.056;3.698;2023-08-17T17:08:16;15.58;;;11.18;;
70075;SDS011;63241;51.056;3.698;2023-08-17T17:11:02;18.02;;;12.65;;
70075;SDS011;63241;51.056;3.698;2023-08-17T17:32:34;19.35;;;12.25;;
70075;SDS011;63241;51.056;3.698;2023-08-17T17:35:21;19.12;;;12.78;;
70075;SDS011;63241;51.056;3.698;2023-08-17T17:38:07;20.48;;;14.35;;
70075;SDS011;63241;51.056;3.698;2023-08-17T17:47:19;18.50;;;14.53;;
70075;SDS011;63241;51.056;3.698;2023-08-17T17:50:06;20.05;;;14.03;;
70075;SDS011;63241;51.056;3.698;2023-08-17T17:52:52;18.27;;;14.53;;
70075;SDS011;63241;51.056;3.698;2023-08-17T17:55:38;16.95;;;13.60;;
70075;SDS011;63241;51.056;3.698;2023-08-17T17:58:25;19.30;;;14.65;;
70075;SDS011;63241;51.056;3.698;2023-08-17T18:01:11;20.30;;;15.00;;
70075;SDS011;63241;51.056;3.698;2023-08-17T18:03:58;20.30;;;14.68;;
70075;SDS011;63241;51.056;3.698;2023-08-17T18:06:44;20.55;;;15.10;;
70075;SDS011;63241;51.056;3.698;2023-08-17T18:09:37;20.27;;;15.43;;
70075;SDS011;63241;51.056;3.698;2023-08-17T18:12:23;18.50;;;14.45;;
70075;SDS011;63241;51.056;3.698;2023-08-17T18:15:12;21.10;;;14.93;;
70075;SDS011;63241;51.056;3.698;2023-08-17T18:17:59;20.10;;;17.02;;
70075;SDS011;63241;51.056;3.698;2023-08-17T18:20:45;21.87;;;16.87;;
70075;SDS011;63241;51.056;3.698;2023-08-17T18:23:33;22.75;;;18.00;;
70075;SDS011;63241;51.056;3.698;2023-08-17T18:26:19;21.50;;;17.50;;
70075;SDS011;63241;51.056;3.698;2023-08-17T18:29:05;20.35;;;17.17;;
70075;SDS011;63241;51.056;3.698;2023-08-17T18:31:52;20.82;;;18.35;;
